sensor_id;sensor_type;location;lat;lon;timestamp;temperature;humidity
82231;DHT22;71832;45.138;9.816;2023-11-19T09:23:57;8.00;85.40
82231;DHT22;71832;45.138;9.816;2023-11-19T09:26:25;8.00;83.60
82231;DHT22;71832;45.138;9.816;2023-11-19T09:28:53;8.10;82.80
82231;DHT22;71832;45.138;9.816;2023-11-19T09:31:21;8.10;82.80
82231;DHT22;71832;45.138;9.816;2023-11-19T09:33:49;8.10;81.90
82231;DHT22;71832;45.138;9.816;2023-11-19T09:36:17;8.20;81.90
82231;DHT22;71832;45.138;9.816;2023-11-19T09:38:46;8.30;81.30
82231;DHT22;71832;45.138;9.816;2023-11-19T09:41:13;8.30;81.20
82231;DHT22;71832;45.138;9.816;2023-11-19T09:43:42;8.40;80.00
82231;DHT22;71832;45.138;9.816;2023-11-19T09:46:14;8.40;80.50
82231;DHT22;71832;45.138;9.816;2023-11-19T09:48:43;8.40;81.20
82231;DHT22;71832;45.138;9.816;2023-11-19T09:51:13;8.50;79.60
82231;DHT22;71832;45.138;9.816;2023-11-19T09:53:41;8.60;79.50
82231;DHT22;71832;45.138;9.816;2023-11-19T09:56:10;8.60;78.80
82231;DHT22;71832;45.138;9.816;2023-11-19T09:58:39;8.60;78.70
82231;DHT22;71832;45.138;9.816;2023-11-19T10:01:09;8.80;79.30
82231;DHT22;71832;45.138;9.816;2023-11-19T10:03:40;8.90;79.80
82231;DHT22;71832;45.138;9.816;2023-11-19T10:06:10;9.00;77.30
82231;DHT22;71832;45.138;9.816;2023-11-19T10:08:39;9.10;78.40
82231;DHT22;71832;45.138;9.816;2023-11-19T10:11:08;9.20;81.60
82231;DHT22;71832;45.138;9.816;2023-11-19T10:13:37;9.20;81.20
82231;DHT22;71832;45.138;9.816;2023-11-19T10:16:09;9.40;82.70
82231;DHT22;71832;45.138;9.816;2023-11-19T10:18:42;9.40;80.50
82231;DHT22;71832;45.138;9.816;2023-11-19T10:21:18;9.50;81.20
82231;DHT22;71832;45.138;9.816;2023-11-19T10:23:52;9.60;79.60
82231;DHT22;71832;45.138;9.816;2023-11-19T10:26:21;9.60;79.30
82231;DHT22;71832;45.138;9.816;2023-11-19T10:28:50;9.70;80.70
82231;DHT22;71832;45.138;9.816;2023-11-19T10:31:19;9.70;79.70
82231;DHT22;71832;45.138;9.816;2023-11-19T10:33:52;9.80;78.50
82231;DHT22;71832;45.138;9.816;2023-11-19T10:36:20;9.90;77.90
82231;DHT22;71832;45.138;9.816;2023-11-19T10:38:56;10.00;79.40
82231;DHT22;71832;45.138;9.816;2023-11-19T10:41:30;10.00;78.70
82231;DHT22;71832;45.138;9.816;2023-11-19T10:44:00;10.00;77.50
82231;DHT22;71832;45.138;9.816;2023-11-19T10:46:48;10.20;77.80
82231;DHT22;71832;45.138;9.816;2023-11-19T10:49:17;10.20;78.20
82231;DHT22;71832;45.138;9.816;2023-11-19T10:51:46;10.30;79.20
82231;DHT22;71832;45.138;9.816;2023-11-19T10:54:17;10.40;79.20
82231;DHT22;71832;45.138;9.816;2023-11-19T10:56:50;10.60;78.20
82231;DHT22;71832;45.138;9.816;2023-11-19T10:59:21;10.70;78.90
82231;DHT22;71832;45.138;9.816;2023-11-19T11:01:54;10.80;77.40
82231;DHT22;71832;45.138;9.816;2023-11-19T11:04:24;10.90;77.60
82231;DHT22;71832;45.138;9.816;2023-11-19T11:06:55;11.00;75.80
82231;DHT22;71832;45.138;9.816;2023-11-19T11:09:27;11.10;74.90
82231;DHT22;71832;45.138;9.816;2023-11-19T11:11:55;11.30;74.60
82231;DHT22;71832;45.138;9.816;2023-11-19T11:14:25;11.50;74.60
82231;DHT22;71832;45.138;9.816;2023-11-19T11:16:54;11.60;74.40
82231;DHT22;71832;45.138;9.816;2023-11-19T11:19:23;11.80;73.90
82231;DHT22;71832;45.138;9.816;2023-11-19T11:21:53;11.90;73.00
82231;DHT22;71832;45.138;9.816;2023-11-19T11:25:16;12.00;71.50
82231;DHT22;71832;45.138;9.816;2023-11-19T11:27:40;12.20;72.20
82231;DHT22;71832;45.138;9.816;2023-11-19T11:38:09;12.90;70.00
82231;DHT22;71832;45.138;9.816;2023-11-19T11:40:37;13.10;68.20
82231;DHT22;71832;45.138;9.816;2023-11-19T11:43:05;13.10;68.60
82231;DHT22;71832;45.138;9.816;2023-11-19T11:45:52;13.40;68.60
82231;DHT22;71832;45.138;9.816;2023-11-19T11:48:20;13.50;63.90
82231;DHT22;71832;45.138;9.816;2023-11-19T11:50:53;13.60;64.10
82231;DHT22;71832;45.138;9.816;2023-11-19T11:53:23;13.90;64.20
82231;DHT22;71832;45.138;9.816;2023-11-19T11:55:52;14.10;64.60
82231;DHT22;71832;45.138;9.816;2023-11-19T11:58:27;14.30;64.00
82231;DHT22;71832;45.138;9.816;2023-11-19T12:00:59;14.40;62.20
82231;DHT22;71832;45.138;9.816;2023-11-19T12:03:30;14.40;62.60
82231;DHT22;71832;45.138;9.816;2023-11-19T12:05:59;14.40;63.90
82231;DHT22;71832;45.138;9.816;2023-11-19T12:08:28;14.50;62.40
82231;DHT22;71832;45.138;9.816;2023-11-19T12:10:58;14.50;62.00
82231;DHT22;71832;45.138;9.816;2023-11-19T12:14:15;14.50;62.50
82231;DHT22;71832;45.138;9.816;2023-11-19T12:16:17;14.40;63.20
82231;DHT22;71832;45.138;9.816;2023-11-19T12:18:46;14.30;62.40
82231;DHT22;71832;45.138;9.816;2023-11-19T12:21:29;14.30;63.60
82231;DHT22;71832;45.138;9.816;2023-11-19T12:23:59;14.10;62.90
82231;DHT22;71832;45.138;9.816;2023-11-19T12:26:35;13.90;62.40
82231;DHT22;71832;45.138;9.816;2023-11-19T12:29:04;13.70;63.70
82231;DHT22;71832;45.138;9.816;2023-11-19T12:31:33;13.50;64.00
82231;DHT22;71832;45.138;9.816;2023-11-19T12:34:06;13.30;64.90
82231;DHT22;71832;45.138;9.816;2023-11-19T12:36:39;13.20;65.80
82231;DHT22;71832;45.138;9.816;2023-11-19T12:39:07;13.10;66.90
82231;DHT22;71832;45.138;9.816;2023-11-19T12:41:50;12.90;68.30
82231;DHT22;71832;45.138;9.816;2023-11-19T12:44:18;12.80;69.30
82231;DHT22;71832;45.138;9.816;2023-11-19T12:46:58;12.70;69.20
82231;DHT22;71832;45.138;9.816;2023-11-19T12:49:27;12.70;68.90
82231;DHT22;71832;45.138;9.816;2023-11-19T12:51:56;12.60;69.80
82231;DHT22;71832;45.138;9.816;2023-11-19T12:54:43;12.50;70.70
82231;DHT22;71832;45.138;9.816;2023-11-19T12:57:11;12.50;71.10
82231;DHT22;71832;45.138;9.816;2023-11-19T12:59:40;12.50;71.00
82231;DHT22;71832;45.138;9.816;2023-11-19T13:02:08;12.50;71.20
82231;DHT22;71832;45.138;9.816;2023-11-19T13:04:37;12.40;71.10
82231;DHT22;71832;45.138;9.816;2023-11-19T13:07:06;12.40;71.50
82231;DHT22;71832;45.138;9.816;2023-11-19T13:09:35;12.40;72.10
82231;DHT22;71832;45.138;9.816;2023-11-19T13:12:14;12.40;71.70
82231;DHT22;71832;45.138;9.816;2023-11-19T13:14:43;12.30;71.50
82231;DHT22;71832;45.138;9.816;2023-11-19T13:17:15;12.30;71.50
82231;DHT22;71832;45.138;9.816;2023-11-19T13:19:43;12.30;71.60
82231;DHT22;71832;45.138;9.816;2023-11-19T13:22:15;12.30;70.90
82231;DHT22;71832;45.138;9.816;2023-11-19T13:24:43;12.30;70.60
82231;DHT22;71832;45.138;9.816;2023-11-19T13:27:14;12.30;70.20
82231;DHT22;71832;45.138;9.816;2023-11-19T13:29:42;12.30;70.10
82231;DHT22;71832;45.138;9.816;2023-11-19T13:32:11;12.30;70.00
82231;DHT22;71832;45.138;9.816;2023-11-19T13:34:39;12.30;70.30
82231;DHT22;71832;45.138;9.816;2023-11-19T13:37:07;12.30;70.80
82231;DHT22;71832;45.138;9.816;2023-11-19T13:39:36;12.30;72.50
82231;DHT22;71832;45.138;9.816;2023-11-19T13:42:09;12.30;72.00
82231;DHT22;71832;45.138;9.816;2023-11-19T13:44:37;12.30;71.60
82231;DHT22;71832;45.138;9.816;2023-11-19T13:47:05;12.30;70.60
82231;DHT22;71832;45.138;9.816;2023-11-19T13:49:33;12.30;70.70
82231;DHT22;71832;45.138;9.816;2023-11-19T13:52:02;12.20;71.20
82231;DHT22;71832;45.138;9.816;2023-11-19T13:54:30;12.30;71.60
82231;DHT22;71832;45.138;9.816;2023-11-19T13:56:59;12.30;71.80
82231;DHT22;71832;45.138;9.816;2023-11-19T13:59:27;12.30;72.00
82231;DHT22;71832;45.138;9.816;2023-11-19T14:01:55;12.30;71.80
82231;DHT22;71832;45.138;9.816;2023-11-19T14:04:24;12.20;71.50
82231;DHT22;71832;45.138;9.816;2023-11-19T14:06:52;12.30;71.60
82231;DHT22;71832;45.138;9.816;2023-11-19T14:09:22;12.30;71.70
82231;DHT22;71832;45.138;9.816;2023-11-19T14:11:51;12.30;71.90
82231;DHT22;71832;45.138;9.816;2023-11-19T14:14:19;12.20;72.10
82231;DHT22;71832;45.138;9.816;2023-11-19T14:16:46;12.20;73.30
82231;DHT22;71832;45.138;9.816;2023-11-19T14:19:14;12.20;72.80
82231;DHT22;71832;45.138;9.816;2023-11-19T14:21:43;12.20;72.50
82231;DHT22;71832;45.138;9.816;2023-11-19T14:24:16;12.20;72.30
82231;DHT22;71832;45.138;9.816;2023-11-19T14:26:46;12.10;73.20
82231;DHT22;71832;45.138;9.816;2023-11-19T14:29:14;12.10;73.00
82231;DHT22;71832;45.138;9.816;2023-11-19T14:31:42;12.20;73.00
82231;DHT22;71832;45.138;9.816;2023-11-19T14:34:11;12.20;73.30
82231;DHT22;71832;45.138;9.816;2023-11-19T14:36:40;12.20;73.40
82231;DHT22;71832;45.138;9.816;2023-11-19T14:39:08;12.20;73.10
82231;DHT22;71832;45.138;9.816;2023-11-19T14:41:37;12.10;73.30
82231;DHT22;71832;45.138;9.816;2023-11-19T14:44:06;12.10;73.40
82231;DHT22;71832;45.138;9.816;2023-11-19T14:46:37;12.10;73.10
82231;DHT22;71832;45.138;9.816;2023-11-19T14:49:05;12.10;72.60
82231;DHT22;71832;45.138;9.816;2023-11-19T14:51:38;12.10;72.50
82231;DHT22;71832;45.138;9.816;2023-11-19T14:54:05;12.10;73.30
82231;DHT22;71832;45.138;9.816;2023-11-19T14:56:33;12.00;73.90
82231;DHT22;71832;45.138;9.816;2023-11-19T14:59:00;12.00;74.30
82231;DHT22;71832;45.138;9.816;2023-11-19T15:01:29;12.00;74.40
82231;DHT22;71832;45.138;9.816;2023-11-19T15:03:57;12.00;74.10
82231;DHT22;71832;45.138;9.816;2023-11-19T15:06:25;12.00;74.10
82231;DHT22;71832;45.138;9.816;2023-11-19T15:08:53;11.90;75.30
82231;DHT22;71832;45.138;9.816;2023-11-19T15:11:21;11.90;75.40
82231;DHT22;71832;45.138;9.816;2023-11-19T15:13:49;11.90;75.20
82231;DHT22;71832;45.138;9.816;2023-11-19T15:16:17;11.90;75.20
82231;DHT22;71832;45.138;9.816;2023-11-19T15:18:51;11.90;75.80
82231;DHT22;71832;45.138;9.816;2023-11-19T15:21:19;11.90;75.50
82231;DHT22;71832;45.138;9.816;2023-11-19T15:23:47;11.90;75.00
82231;DHT22;71832;45.138;9.816;2023-11-19T15:26:14;11.90;74.80
82231;DHT22;71832;45.138;9.816;2023-11-19T15:28:42;11.80;74.90
82231;DHT22;71832;45.138;9.816;2023-11-19T15:31:09;11.80;74.70
82231;DHT22;71832;45.138;9.816;2023-11-19T15:33:36;11.80;75.60
82231;DHT22;71832;45.138;9.816;2023-11-19T15:36:06;11.70;75.60
82231;DHT22;71832;45.138;9.816;2023-11-19T15:38:35;11.70;76.30
82231;DHT22;71832;45.138;9.816;2023-11-19T15:41:03;11.70;77.60
82231;DHT22;71832;45.138;9.816;2023-11-19T15:43:32;11.70;78.20
82231;DHT22;71832;45.138;9.816;2023-11-19T15:46:00;11.60;77.70
82231;DHT22;71832;45.138;9.816;2023-11-19T15:48:28;11.60;77.90
82231;DHT22;71832;45.138;9.816;2023-11-19T15:50:57;11.50;78.10
82231;DHT22;71832;45.138;9.816;2023-11-19T15:53:26;11.50;77.80
82231;DHT22;71832;45.138;9.816;2023-11-19T15:55:54;11.50;78.40
82231;DHT22;71832;45.138;9.816;2023-11-19T15:58:23;11.50;78.70
82231;DHT22;71832;45.138;9.816;2023-11-19T16:00:52;11.40;78.70
82231;DHT22;71832;45.138;9.816;2023-11-19T16:03:21;11.40;78.50
82231;DHT22;71832;45.138;9.816;2023-11-19T16:05:49;11.40;78.00
82231;DHT22;71832;45.138;9.816;2023-11-19T16:08:18;11.30;78.20
82231;DHT22;71832;45.138;9.816;2023-11-19T16:10:48;11.30;78.50
82231;DHT22;71832;45.138;9.816;2023-11-19T16:13:17;11.20;78.90
82231;DHT22;71832;45.138;9.816;2023-11-19T16:15:46;11.10;78.90
82231;DHT22;71832;45.138;9.816;2023-11-19T16:18:14;11.10;79.10
82231;DHT22;71832;45.138;9.816;2023-11-19T16:20:42;11.10;79.80
82231;DHT22;71832;45.138;9.816;2023-11-19T16:23:09;11.00;80.10
82231;DHT22;71832;45.138;9.816;2023-11-19T16:25:37;11.00;80.20
82231;DHT22;71832;45.138;9.816;2023-11-19T16:28:06;11.00;80.10
82231;DHT22;71832;45.138;9.816;2023-11-19T16:30:36;11.00;80.00
82231;DHT22;71832;45.138;9.816;2023-11-19T16:33:03;11.00;79.90
82231;DHT22;71832;45.138;9.816;2023-11-19T16:35:31;10.90;79.70
82231;DHT22;71832;45.138;9.816;2023-11-19T16:37:59;11.00;79.60
82231;DHT22;71832;45.138;9.816;2023-11-19T16:40:28;10.90;80.00
82231;DHT22;71832;45.138;9.816;2023-11-19T16:42:57;10.90;80.00
82231;DHT22;71832;45.138;9.816;2023-11-19T16:45:25;10.80;79.60
82231;DHT22;71832;45.138;9.816;2023-11-19T16:47:54;10.80;79.80
82231;DHT22;71832;45.138;9.816;2023-11-19T16:50:22;10.80;80.00
82231;DHT22;71832;45.138;9.816;2023-11-19T16:52:49;10.70;79.90
82231;DHT22;71832;45.138;9.816;2023-11-19T16:55:16;10.70;79.70
82231;DHT22;71832;45.138;9.816;2023-11-19T16:57:44;10.70;80.10
82231;DHT22;71832;45.138;9.816;2023-11-19T17:00:11;10.70;80.10
82231;DHT22;71832;45.138;9.816;2023-11-19T17:02:41;10.70;80.20
82231;DHT22;71832;45.138;9.816;2023-11-19T17:05:10;10.60;80.40
82231;DHT22;71832;45.138;9.816;2023-11-19T17:07:38;10.60;80.40
82231;DHT22;71832;45.138;9.816;2023-11-19T17:10:06;10.60;80.60
82231;DHT22;71832;45.138;9.816;2023-11-19T17:12:34;10.60;80.50
82231;DHT22;71832;45.138;9.816;2023-11-19T17:15:02;10.60;80.80
82231;DHT22;71832;45.138;9.816;2023-11-19T17:17:33;10.60;80.80
82231;DHT22;71832;45.138;9.816;2023-11-19T17:20:03;10.50;80.70
82231;DHT22;71832;45.138;9.816;2023-11-19T17:22:32;10.50;80.80
82231;DHT22;71832;45.138;9.816;2023-11-19T17:25:02;10.40;81.20
82231;DHT22;71832;45.138;9.816;2023-11-19T17:27:31;10.40;81.50
82231;DHT22;71832;45.138;9.816;2023-11-19T17:30:00;10.40;81.20
82231;DHT22;71832;45.138;9.816;2023-11-19T17:32:31;10.40;81.50
82231;DHT22;71832;45.138;9.816;2023-11-19T17:35:00;10.30;81.40
82231;DHT22;71832;45.138;9.816;2023-11-19T17:37:30;10.20;80.80
82231;DHT22;71832;45.138;9.816;2023-11-19T17:39:58;10.10;81.30
82231;DHT22;71832;45.138;9.816;2023-11-19T17:42:26;10.00;82.00
82231;DHT22;71832;45.138;9.816;2023-11-19T17:44:53;10.00;82.40
82231;DHT22;71832;45.138;9.816;2023-11-19T17:47:25;10.00;82.60
82231;DHT22;71832;45.138;9.816;2023-11-19T17:49:52;10.00;83.10
82231;DHT22;71832;45.138;9.816;2023-11-19T17:52:21;9.90;83.50
82231;DHT22;71832;45.138;9.816;2023-11-19T17:54:51;9.90;82.50
82231;DHT22;71832;45.138;9.816;2023-11-19T17:57:20;9.80;82.40
82231;DHT22;71832;45.138;9.816;2023-11-19T17:59:49;9.70;83.00
82231;DHT22;71832;45.138;9.816;2023-11-19T18:02:18;9.60;83.70
82231;DHT22;71832;45.138;9.816;2023-11-19T18:04:47;9.60;84.00
82231;DHT22;71832;45.138;9.816;2023-11-19T18:07:16;9.50;84.50
82231;DHT22;71832;45.138;9.816;2023-11-19T18:09:44;9.50;84.80
82231;DHT22;71832;45.138;9.816;2023-11-19T18:12:12;9.40;84.90
82231;DHT22;71832;45.138;9.816;2023-11-19T18:14:40;9.40;85.20
82231;DHT22;71832;45.138;9.816;2023-11-19T18:17:08;9.40;85.50
82231;DHT22;71832;45.138;9.816;2023-11-19T18:19:37;9.40;85.90
82231;DHT22;71832;45.138;9.816;2023-11-19T18:22:07;9.40;86.10
82231;DHT22;71832;45.138;9.816;2023-11-19T18:24:35;9.40;86.30
82231;DHT22;71832;45.138;9.816;2023-11-19T18:27:03;9.40;86.30
82231;DHT22;71832;45.138;9.816;2023-11-19T18:29:31;9.40;86.20
82231;DHT22;71832;45.138;9.816;2023-11-19T18:31:58;9.40;86.30
82231;DHT22;71832;45.138;9.816;2023-11-19T18:34:25;9.40;86.50
82231;DHT22;71832;45.138;9.816;2023-11-19T18:36:53;9.40;86.50
82231;DHT22;71832;45.138;9.816;2023-11-19T18:39:21;9.40;86.60
82231;DHT22;71832;45.138;9.816;2023-11-19T18:41:49;9.40;86.60
82231;DHT22;71832;45.138;9.816;2023-11-19T18:44:16;9.40;86.50
82231;DHT22;71832;45.138;9.816;2023-11-19T18:46:44;9.40;85.10
82231;DHT22;71832;45.138;9.816;2023-11-19T18:49:11;9.30;85.50
82231;DHT22;71832;45.138;9.816;2023-11-19T18:51:39;9.30;85.80
82231;DHT22;71832;45.138;9.816;2023-11-19T18:54:06;9.40;86.50
82231;DHT22;71832;45.138;9.816;2023-11-19T18:56:35;9.40;86.60
82231;DHT22;71832;45.138;9.816;2023-11-19T18:59:02;9.40;86.40
82231;DHT22;71832;45.138;9.816;2023-11-19T19:01:34;9.40;85.70
82231;DHT22;71832;45.138;9.816;2023-11-19T19:04:01;9.40;85.90
82231;DHT22;71832;45.138;9.816;2023-11-19T19:06:29;9.30;85.30
82231;DHT22;71832;45.138;9.816;2023-11-19T19:08:56;9.20;85.50
82231;DHT22;71832;45.138;9.816;2023-11-19T19:11:24;9.20;85.90
82231;DHT22;71832;45.138;9.816;2023-11-19T19:13:51;9.20;86.70
82231;DHT22;71832;45.138;9.816;2023-11-19T19:16:18;9.00;87.80
82231;DHT22;71832;45.138;9.816;2023-11-19T19:18:46;9.00;88.20
82231;DHT22;71832;45.138;9.816;2023-11-19T19:21:17;9.00;88.10
82231;DHT22;71832;45.138;9.816;2023-11-19T19:23:45;9.00;88.40
82231;DHT22;71832;45.138;9.816;2023-11-19T19:26:12;9.00;88.70
82231;DHT22;71832;45.138;9.816;2023-11-19T19:28:42;9.00;88.70
82231;DHT22;71832;45.138;9.816;2023-11-19T19:31:10;9.00;88.90
82231;DHT22;71832;45.138;9.816;2023-11-19T19:33:44;9.00;88.90
82231;DHT22;71832;45.138;9.816;2023-11-19T19:36:15;8.90;89.20
82231;DHT22;71832;45.138;9.816;2023-11-19T19:38:42;9.00;89.00
82231;DHT22;71832;45.138;9.816;2023-11-19T19:41:09;9.00;89.30
82231;DHT22;71832;45.138;9.816;2023-11-19T19:43:37;8.90;89.50
82231;DHT22;71832;45.138;9.816;2023-11-19T19:46:06;8.90;89.70
82231;DHT22;71832;45.138;9.816;2023-11-19T19:48:38;8.90;89.90
82231;DHT22;71832;45.138;9.816;2023-11-19T19:51:06;8.90;89.90
82231;DHT22;71832;45.138;9.816;2023-11-19T19:53:34;8.90;90.00
82231;DHT22;71832;45.138;9.816;2023-11-19T19:56:05;8.90;90.30
82231;DHT22;71832;45.138;9.816;2023-11-19T19:58:35;8.90;90.50
82231;DHT22;71832;45.138;9.816;2023-11-19T20:01:03;8.90;90.70
82231;DHT22;71832;45.138;9.816;2023-11-19T20:03:33;8.90;90.60
82231;DHT22;71832;45.138;9.816;2023-11-19T20:06:02;8.90;90.40
82231;DHT22;71832;45.138;9.816;2023-11-19T20:08:32;8.90;88.60
82231;DHT22;71832;45.138;9.816;2023-11-19T20:11:01;8.80;88.20
82231;DHT22;71832;45.138;9.816;2023-11-19T20:13:30;8.70;88.60
82231;DHT22;71832;45.138;9.816;2023-11-19T20:15:58;8.60;90.00
82231;DHT22;71832;45.138;9.816;2023-11-19T20:18:27;8.60;90.90
82231;DHT22;71832;45.138;9.816;2023-11-19T20:20:57;8.60;91.30
82231;DHT22;71832;45.138;9.816;2023-11-19T20:23:26;8.60;91.20
82231;DHT22;71832;45.138;9.816;2023-11-19T20:25:55;8.60;91.30
82231;DHT22;71832;45.138;9.816;2023-11-19T20:28:23;8.60;91.50
82231;DHT22;71832;45.138;9.816;2023-11-19T20:30:52;8.60;91.70
82231;DHT22;71832;45.138;9.816;2023-11-19T20:33:21;8.60;90.30
82231;DHT22;71832;45.138;9.816;2023-11-19T20:35:49;8.60;89.00
82231;DHT22;71832;45.138;9.816;2023-11-19T20:38:18;8.60;88.70
82231;DHT22;71832;45.138;9.816;2023-11-19T20:40:46;8.50;89.80
82231;DHT22;71832;45.138;9.816;2023-11-19T20:43:16;8.50;90.70
82231;DHT22;71832;45.138;9.816;2023-11-19T20:45:45;8.40;91.30
82231;DHT22;71832;45.138;9.816;2023-11-19T20:48:14;8.40;91.90
82231;DHT22;71832;45.138;9.816;2023-11-19T20:50:42;8.40;92.00
82231;DHT22;71832;45.138;9.816;2023-11-19T20:53:11;8.40;92.10
82231;DHT22;71832;45.138;9.816;2023-11-19T20:55:40;8.40;91.80
82231;DHT22;71832;45.138;9.816;2023-11-19T20:58:11;8.40;91.80
82231;DHT22;71832;45.138;9.816;2023-11-19T21:00:39;8.50;91.60
82231;DHT22;71832;45.138;9.816;2023-11-19T21:03:10;8.50;91.50
82231;DHT22;71832;45.138;9.816;2023-11-19T21:05:38;8.50;91.30
82231;DHT22;71832;45.138;9.816;2023-11-19T21:08:07;8.50;91.00
82231;DHT22;71832;45.138;9.816;2023-11-19T21:10:35;8.50;90.90
82231;DHT22;71832;45.138;9.816;2023-11-19T21:13:04;8.40;91.20
82231;DHT22;71832;45.138;9.816;2023-11-19T21:15:32;8.50;91.30
82231;DHT22;71832;45.138;9.816;2023-11-19T21:18:00;8.50;91.10
82231;DHT22;71832;45.138;9.816;2023-11-19T21:20:28;8.50;91.10
82231;DHT22;71832;45.138;9.816;2023-11-19T21:22:56;8.40;91.30
82231;DHT22;71832;45.138;9.816;2023-11-19T21:25:25;8.40;91.30
82231;DHT22;71832;45.138;9.816;2023-11-19T21:27:54;8.40;91.00
82231;DHT22;71832;45.138;9.816;2023-11-19T21:30:22;8.50;90.70
82231;DHT22;71832;45.138;9.816;2023-11-19T21:32:51;8.50;90.50
82231;DHT22;71832;45.138;9.816;2023-11-19T21:35:19;8.50;90.30
82231;DHT22;71832;45.138;9.816;2023-11-19T21:37:48;8.60;90.20
82231;DHT22;71832;45.138;9.816;2023-11-19T21:40:16;8.60;89.90
82231;DHT22;71832;45.138;9.816;2023-11-19T21:42:44;8.60;89.90
82231;DHT22;71832;45.138;9.816;2023-11-19T21:45:12;8.60;89.70
82231;DHT22;71832;45.138;9.816;2023-11-19T21:47:41;8.60;89.60
82231;DHT22;71832;45.138;9.816;2023-11-19T21:50:09;8.60;88.70
82231;DHT22;71832;45.138;9.816;2023-11-19T21:52:38;8.50;88.40
82231;DHT22;71832;45.138;9.816;2023-11-19T21:55:06;8.50;88.00
82231;DHT22;71832;45.138;9.816;2023-11-19T21:57:36;8.40;88.20
82231;DHT22;71832;45.138;9.816;2023-11-19T22:00:07;8.40;88.90
82231;DHT22;71832;45.138;9.816;2023-11-19T22:02:35;8.40;89.30
82231;DHT22;71832;45.138;9.816;2023-11-19T22:05:03;8.40;89.50
82231;DHT22;71832;45.138;9.816;2023-11-19T22:07:31;8.40;89.70
82231;DHT22;71832;45.138;9.816;2023-11-19T22:10:00;8.40;89.20
82231;DHT22;71832;45.138;9.816;2023-11-19T22:12:29;8.30;89.40
82231;DHT22;71832;45.138;9.816;2023-11-19T22:14:57;8.30;89.70
82231;DHT22;71832;45.138;9.816;2023-11-19T22:17:25;8.30;89.80
82231;DHT22;71832;45.138;9.816;2023-11-19T22:19:53;8.30;89.80
82231;DHT22;71832;45.138;9.816;2023-11-19T22:22:21;8.30;89.80
82231;DHT22;71832;45.138;9.816;2023-11-19T22:24:49;8.20;89.90
82231;DHT22;71832;45.138;9.816;2023-11-19T22:27:17;8.20;89.80
82231;DHT22;71832;45.138;9.816;2023-11-19T22:29:46;8.20;89.70
82231;DHT22;71832;45.138;9.816;2023-11-19T22:32:15;8.20;90.00
82231;DHT22;71832;45.138;9.816;2023-11-19T22:34:43;8.20;89.70
82231;DHT22;71832;45.138;9.816;2023-11-19T22:37:11;8.20;89.90
82231;DHT22;71832;45.138;9.816;2023-11-19T22:39:39;8.20;90.20
82231;DHT22;71832;45.138;9.816;2023-11-19T22:42:07;8.20;90.80
82231;DHT22;71832;45.138;9.816;2023-11-19T22:44:35;8.20;91.00
82231;DHT22;71832;45.138;9.816;2023-11-19T22:47:03;8.20;91.20
82231;DHT22;71832;45.138;9.816;2023-11-19T22:49:31;8.20;91.20
82231;DHT22;71832;45.138;9.816;2023-11-19T22:51:59;8.30;91.20
82231;DHT22;71832;45.138;9.816;2023-11-19T22:54:27;8.30;90.80
82231;DHT22;71832;45.138;9.816;2023-11-19T22:56:55;8.20;89.70
82231;DHT22;71832;45.138;9.816;2023-11-19T22:59:23;8.20;89.60
82231;DHT22;71832;45.138;9.816;2023-11-19T23:01:51;8.10;90.20
82231;DHT22;71832;45.138;9.816;2023-11-19T23:04:19;8.10;90.50
82231;DHT22;71832;45.138;9.816;2023-11-19T23:06:47;8.00;91.20
82231;DHT22;71832;45.138;9.816;2023-11-19T23:09:15;8.10;91.80
82231;DHT22;71832;45.138;9.816;2023-11-19T23:11:44;8.10;91.80
82231;DHT22;71832;45.138;9.816;2023-11-19T23:14:12;8.10;91.70
82231;DHT22;71832;45.138;9.816;2023-11-19T23:16:41;8.10;91.70
82231;DHT22;71832;45.138;9.816;2023-11-19T23:19:10;8.10;91.60
82231;DHT22;71832;45.138;9.816;2023-11-19T23:21:39;8.10;91.40
82231;DHT22;71832;45.138;9.816;2023-11-19T23:24:11;8.10;91.30
82231;DHT22;71832;45.138;9.816;2023-11-19T23:26:39;8.10;91.30
82231;DHT22;71832;45.138;9.816;2023-11-19T23:29:08;8.00;91.60
82231;DHT22;71832;45.138;9.816;2023-11-19T23:31:37;8.00;91.80
82231;DHT22;71832;45.138;9.816;2023-11-19T23:34:06;8.00;91.80
82231;DHT22;71832;45.138;9.816;2023-11-19T23:36:34;8.00;91.80
82231;DHT22;71832;45.138;9.816;2023-11-19T23:39:03;8.00;91.80
82231;DHT22;71832;45.138;9.816;2023-11-19T23:41:33;8.00;91.50
82231;DHT22;71832;45.138;9.816;2023-11-19T23:44:02;8.00;91.10
82231;DHT22;71832;45.138;9.816;2023-11-19T23:46:31;8.00;91.10
82231;DHT22;71832;45.138;9.816;2023-11-19T23:48:59;8.00;91.00
82231;DHT22;71832;45.138;9.816;2023-11-19T23:51:28;8.00;90.70
82231;DHT22;71832;45.138;9.816;2023-11-19T23:53:56;8.00;90.80
82231;DHT22;71832;45.138;9.816;2023-11-19T23:56:24;8.00;90.60
82231;DHT22;71832;45.138;9.816;2023-11-19T23:58:54;8.00;90.80
